Dades meteomassalio
Diari Summary for Gener 16, 2018 Units:  Metric    English   Both
« Previous Day
Next Day »
Diari Semanal Mensual Anual Personalitzat
  Maxima: Minima: Mijana:
Temperatura: -17.8 °C -18.1 °C -13.3 °C
Rosada: -17.8 °C -21.4 °C -16.4 °C
Humitat: Humidity % 55 % 67 %
Velocitat del vent: 0 km/h 0 km/h 29.3 km/h
Racha vent: 0 km/h - -
Vent:- - NW
Pressio: 0 hPa 34703.1 hPa -
Pluja: 0 mm    
Historical Graphs
 
 
Tabular Data for Gener 16, 2018
Time Temperature Dew Point Pressure Wind Wind Speed Wind Gust Humidity Rainfall Rate (Hourly) solar Conditions
-17.8 °C -17.8 °C 0 hPa Calm     Humidity % 0 mm SolarRadiationWatts/m^2 W/m2 Conditions
00:00 -17.2 °C -18.2 °C 34831.8 hPa NNW 3.1 km/h 3.1 km/h 88 % 0 mm 0.0 W/m2 CLR
00:17 -17.2 °C -18.2 °C 34831.8 hPa Calm     87 % 0 mm 0.0 W/m2 CLR
00:23 -17.2 °C -18.2 °C 34831.8 hPa Calm     88 % 0 mm 0.0 W/m2 CLR
00:42 -17.4 °C -18.4 °C 34818.2 hPa WNW 3.1 km/h   88 % 0 mm 0.0 W/m2 CLR
00:59 -17.4 °C -19.1 °C 34818.2 hPa Calm     81 % 0 mm 0.0 W/m2 CLR
01:07 -17.4 °C -19.3 °C 34818.2 hPa Calm     79 % 0 mm 0.0 W/m2 CLR
01:13 -17.8 °C -19.6 °C 34808.1 hPa West 9 km/h 9 km/h 79 % 0 mm 0.0 W/m2 CLR
01:32 -17.8 °C -19.7 °C 34797.9 hPa West 3.1 km/h   78 % 0 mm 0.0 W/m2 CLR
01:41 -17.8 °C -19.8 °C 34797.9 hPa Calm     77 % 0 mm 0.0 W/m2 CLR
01:46 -17.8 °C -19.8 °C 34797.9 hPa Calm     76 % 0 mm 0.0 W/m2 CLR
02:23 -17.2 °C -20.1 °C 34797.9 hPa NW 9 km/h 9 km/h 68 % 0 mm 0.0 W/m2 CLR
02:51 -17.4 °C -21.1 °C 34784.4 hPa WNW 9 km/h 9 km/h 62 % 0 mm 0.0 W/m2 CLR
03:08 -17.4 °C -20.8 °C 34784.4 hPa Calm     64 % 0 mm 0.0 W/m2 CLR
03:14 -17.4 °C -20.7 °C 34784.4 hPa WNW 9 km/h 9 km/h 65 % 0 mm 0.0 W/m2 CLR
03:33 -17.8 °C -21.1 °C 34774.2 hPa WNW 6 km/h 6 km/h 64 % 0 mm 0.0 W/m2 CLR
03:44 -17.8 °C -21 °C 34774.2 hPa Calm     65 % 0 mm 0.0 W/m2 CLR
04:18 -18.1 °C -21.4 °C 34774.2 hPa Calm     64 % 0 mm 0.0 W/m2 CLR
04:48 -17.2 °C -20.5 °C 34774.2 hPa Calm     64 % 0 mm 0.0 W/m2 CLR
04:56 -17.2 °C -20.4 °C 34760.7 hPa Calm     65 % 0 mm 0.0 W/m2 CLR
05:17 -17.8 °C -20.8 °C 34750.5 hPa WNW 3.1 km/h 3.1 km/h 67 % 0 mm 0.0 W/m2 CLR
05:38 -17.8 °C -20.7 °C 34760.7 hPa Calm     68 % 0 mm 0.0 W/m2 CLR
06:01 -17.8 °C -20.4 °C 34760.7 hPa NW 9 km/h 9 km/h 70 % 0 mm 0.0 W/m2 CLR
06:11 -17.8 °C -20.6 °C 34760.7 hPa NW 9 km/h 9 km/h 69 % 0 mm 0.0 W/m2 CLR
06:18 -17.8 °C -20.6 °C 34760.7 hPa NW 10.3 km/h 10.3 km/h 69 % 0 mm 0.0 W/m2 CLR
06:34 -17.8 °C -20.7 °C 34760.7 hPa WNW 26.9 km/h 26.9 km/h 68 % 0 mm 0.0 W/m2 CLR
06:47 -17.4 °C -20.5 °C 34760.7 hPa NW 32.8 km/h 32.8 km/h 67 % 0 mm 0.0 W/m2 CLR
06:53 -17.2 °C -20.2 °C 34760.7 hPa WNW 29.8 km/h 29.8 km/h 67 % 0 mm 0.0 W/m2 CLR
06:59 -17.2 °C -20.2 °C 34760.7 hPa NW 29.8 km/h 29.8 km/h 67 % 0 mm 0.0 W/m2 CLR
07:06 -17.2 °C -20.2 °C 34760.7 hPa WNW 32.8 km/h 32.8 km/h 67 % 0 mm 0.0 W/m2 CLR
07:23 -16.6 °C -19.6 °C 34760.7 hPa WNW 38.8 km/h 38.8 km/h 67 % 0 mm 0.0 W/m2 CLR
07:30 -16.2 °C -19.3 °C 34760.7 hPa NW 32.8 km/h 32.8 km/h 67 % 0 mm 0.0 W/m2 CLR
07:40 -14.7 °C -17.8 °C 34760.7 hPa WNW 29.8 km/h 29.8 km/h 67 % 0 mm 0.0 W/m2 CLR
07:46 -15 °C -18.1 °C 34760.7 hPa NW 41.7 km/h 41.7 km/h 67 % 0 mm 0.0 W/m2 CLR
07:59 -15.9 °C -19 °C 34760.7 hPa NW 29.8 km/h 29.8 km/h 67 % 0 mm 0.0 W/m2 CLR
08:26 -16.8 °C -19.9 °C 34784.4 hPa NW 29.8 km/h 29.8 km/h 67 % 0 mm 5.0 W/m2 OVC
08:40 -17.2 °C -19.9 °C 34784.4 hPa NW 5.1 km/h 5.1 km/h 69 % 0 mm 11.0 W/m2 BKN
08:47 -17.2 °C -19.9 °C 34784.4 hPa NNW 23.8 km/h 23.8 km/h 70 % 0 mm 14.0 W/m2 BKN
09:23 -13.2 °C -16.2 °C 34797.9 hPa NW 44.7 km/h 44.7 km/h 68 % 0 mm 83.0 W/m2 FEW
09:39 -12.8 °C -15.9 °C 34808.1 hPa WNW 50.7 km/h 50.7 km/h 68 % 0 mm 102.0 W/m2 CLR
10:07 -12.2 °C -15.2 °C 34818.2 hPa NW 44.7 km/h 44.7 km/h 69 % 0 mm 132.0 W/m2 CLR
10:37 -11.6 °C -14.9 °C 34831.8 hPa NW 33.6 km/h 33.6 km/h 67 % 0 mm 287.0 W/m2 CLR
10:44 -11.6 °C -14.9 °C 34831.8 hPa NW 36.2 km/h 36.2 km/h 67 % 0 mm 301.0 W/m2 CLR
10:52 -11.3 °C -14.7 °C 34831.8 hPa WNW 41.7 km/h 41.7 km/h 66 % 0 mm 316.0 W/m2 CLR
11:50 -10.4 °C -14.1 °C 34831.8 hPa NW 41.7 km/h 41.7 km/h 64 % 0 mm 411.0 W/m2 CLR
12:07 -10.1 °C -13.8 °C 34818.2 hPa NNW 41.7 km/h 41.7 km/h 64 % 0 mm 431.0 W/m2 CLR
12:13 -10.1 °C -13.9 °C 34818.2 hPa NNW 41.4 km/h 41.4 km/h 63 % 0 mm 436.0 W/m2 CLR
12:26 -10.1 °C -13.8 °C 34808.1 hPa NW 50.7 km/h 50.7 km/h 64 % 0 mm 446.0 W/m2 CLR
12:32 -10.1 °C -13.8 °C 34808.1 hPa NW 47.6 km/h 47.6 km/h 64 % 0 mm 450.0 W/m2 CLR
12:38 -9.8 °C -13.6 °C 34797.9 hPa NW 32.8 km/h 32.8 km/h 63 % 0 mm 457.0 W/m2 CLR
12:54 -9.4 °C -13.3 °C 34797.9 hPa NNW 38.8 km/h 38.8 km/h 63 % 0 mm 459.0 W/m2 CLR
13:00 -9.4 °C -13.4 °C 34784.4 hPa NW 47.6 km/h 47.6 km/h 62 % 0 mm 461.0 W/m2 CLR
13:11 -9.1 °C -13.4 °C 34784.4 hPa NW 59.5 km/h 59.5 km/h 60 % 0 mm 462.0 W/m2 CLR
13:26 -9.1 °C -13.4 °C 34760.7 hPa NW 38.8 km/h 38.8 km/h 60 % 0 mm 464.0 W/m2 CLR
13:37 -8.8 °C -13.3 °C 34750.5 hPa NW 38.8 km/h 38.8 km/h 59 % 0 mm 464.0 W/m2 CLR
13:55 -8.5 °C -13.4 °C 34740.4 hPa NW 56.6 km/h 56.6 km/h 56 % 0 mm 473.0 W/m2 CLR
14:23 -8.2 °C -13.1 °C 34740.4 hPa NNW 59.5 km/h 59.5 km/h 56 % 0 mm 438.0 W/m2 CLR
14:44 -8.2 °C -13.3 °C 34726.8 hPa NNW 62.6 km/h 62.6 km/h 55 % 0 mm 408.0 W/m2 CLR
14:50 -8.2 °C -13.1 °C 34716.7 hPa NW 50.7 km/h 50.7 km/h 56 % 0 mm 394.0 W/m2 CLR
14:56 -8.2 °C -13.3 °C 34716.7 hPa North 62.6 km/h 62.6 km/h 55 % 0 mm 388.0 W/m2 CLR
15:01 -8.2 °C -13.1 °C 34716.7 hPa NNW 46.7 km/h 46.7 km/h 56 % 0 mm 374.0 W/m2 CLR
15:44 -8.5 °C -13.3 °C 34703.1 hPa NW 62.6 km/h 62.6 km/h 57 % 0 mm 292.0 W/m2 CLR
15:50 -8.5 °C -13.3 °C 34703.1 hPa NNW 47.6 km/h 47.6 km/h 57 % 0 mm 278.0 W/m2 CLR
15:56 -8.5 °C -13.3 °C 34703.1 hPa NW 44.7 km/h 44.7 km/h 57 % 0 mm 265.0 W/m2 CLR
16:14 -8.8 °C -13.4 °C 34703.1 hPa NNW 53.6 km/h 53.6 km/h 58 % 0 mm 218.0 W/m2 CLR
16:43 -9.1 °C -13.6 °C 34703.1 hPa NNW 62.6 km/h 62.6 km/h 59 % 0 mm 128.0 W/m2 CLR
16:59 -9.4 °C -13.6 °C 34703.1 hPa NW 47.6 km/h 47.6 km/h 61 % 0 mm 86.0 W/m2 CLR
17:05 -9.4 °C -13.6 °C 34703.1 hPa NNW 38.8 km/h 38.8 km/h 61 % 0 mm 62.0 W/m2 SCT
17:21 -9.8 °C -13.8 °C 34716.7 hPa NNW 51.8 km/h 51.8 km/h 62 % 0 mm 32.0 W/m2 BKN
17:27 -9.8 °C -13.8 °C 34716.7 hPa NNW 59.5 km/h 59.5 km/h 62 % 0 mm 21.0 W/m2 BKN
17:43 -10.1 °C -13.7 °C 34716.7 hPa NW 38.8 km/h 38.8 km/h 65 % 0 mm 11.0 W/m2 BKN
17:50 -10.1 °C -13.7 °C 34716.7 hPa NW 44.7 km/h 44.7 km/h 65 % 0 mm 7.0 W/m2 BKN
17:58 -10.4 °C -13.8 °C 34716.7 hPa NW 35.7 km/h 35.7 km/h 66 % 0 mm 5.0 W/m2 OVC
18:07 -10.4 °C -13.7 °C 34716.7 hPa NW 26.9 km/h 26.9 km/h 67 % 0 mm 0.0 W/m2 CLR
18:49 -10.7 °C -13.9 °C 34703.1 hPa WNW 41.4 km/h 41.4 km/h 68 % 0 mm 0.0 W/m2 CLR
19:05 -11 °C -14.1 °C 34703.1 hPa NW 44.7 km/h 44.7 km/h 69 % 0 mm 0.0 W/m2 CLR
19:55 -11.9 °C -14.4 °C 34703.1 hPa West 29.8 km/h 29.8 km/h 74 % 0 mm 0.0 W/m2 CLR
20:09 -11.9 °C -14.4 °C 34703.1 hPa NW 17.9 km/h 17.9 km/h 74 % 0 mm 0.0 W/m2 CLR
20:22 -11.9 °C -14.4 °C 34716.7 hPa WNW 23.8 km/h 23.8 km/h 74 % 0 mm 0.0 W/m2 CLR
20:29 -12.2 °C -14.6 °C 34716.7 hPa WNW 3.1 km/h 3.1 km/h 75 % 0 mm 0.0 W/m2 CLR
21:20 -12.2 °C -14.7 °C 34726.8 hPa NW 32.8 km/h 32.8 km/h 74 % 0 mm 0.0 W/m2 CLR
21:27 -12.2 °C -14.7 °C 34726.8 hPa NNW 26.9 km/h 26.9 km/h 74 % 0 mm 0.0 W/m2 CLR
21:40 -11.6 °C -14 °C 34726.8 hPa NNW 41.7 km/h 41.7 km/h 75 % 0 mm 0.0 W/m2 CLR
21:58 -11.6 °C -14.1 °C 34726.8 hPa NNW 35.7 km/h 35.7 km/h 74 % 0 mm 0.0 W/m2 CLR
22:46 -11.3 °C -13.8 °C 34716.7 hPa NW 32.8 km/h 32.8 km/h 74 % 0 mm 0.0 W/m2 CLR
23:02 -11.6 °C -14.1 °C 34716.7 hPa NW 29.8 km/h 29.8 km/h 74 % 0 mm 0.0 W/m2 CLR
23:15 -11.6 °C -14.1 °C 34703.1 hPa WNW 29.8 km/h 29.8 km/h 74 % 0 mm 0.0 W/m2 CLR
23:32 -11.9 °C -14.4 °C 34703.1 hPa WNW 32.8 km/h 32.8 km/h 74 % 0 mm 0.0 W/m2 CLR
23:39 -11.9 °C -14.4 °C 34703.1 hPa NW 32.8 km/h 32.8 km/h 74 % 0 mm 0.0 W/m2 CLR
23:58 -11.9 °C -14.4 °C 34703.1 hPa NW 29.8 km/h 29.8 km/h 74 % 0 mm 0.0 W/m2 CLR
Lo Temps de Massalio
Compliments of Weather Underground - 512 kb